Time;durP1;ratioP1;P1;durP2;ratioP2;P2;SDS_P1;SDS_P2;PMS_P1;PMS_P2;Temp;Humidity;BMP_temperature;BMP_pressure;BME280_temperature;BME280_humidity;BME280_pressure;Samples;Min_cycle;Max_cycle;Signal;HPM_P1;HPM_P2
2022/05/10 00:00:49;;;;;;;11.88;6.57;;;384.30;2227.20;;;;;;4899276;29;20067;-81
2022/05/10 00:03:15;;;;;;;12.20;5.95;;;384.10;2227.20;;;;;;4883426;29;20032;-81
2022/05/10 00:05:42;;;;;;;8.95;6.03;;;359.20;2278.40;;;;;;4888261;29;20028;-80
2022/05/10 00:08:11;;;;;;;10.52;5.90;;;359.10;2278.40;;;;;;4901672;29;20475;-81
2022/05/10 00:10:38;;;;;;;9.95;5.45;;;359.10;2278.40;;;;;;4901416;29;20119;-79
2022/05/10 00:13:06;;;;;;;11.13;5.95;;;359.10;2304.00;;;;;;4913107;29;20032;-82
2022/05/10 00:15:33;;;;;;;12.23;6.35;;;359.00;2304.00;;;;;;4885583;29;20053;-80
2022/05/10 00:17:59;;;;;;;14.02;7.82;;;358.90;2329.60;;;;;;4900292;29;20029;-80
2022/05/10 00:20:26;;;;;;;13.85;7.00;;;358.90;2329.60;;;;;;4882307;29;20048;-79
2022/05/10 00:22:53;;;;;;;11.00;5.60;;;358.90;2329.60;;;;;;4882799;29;20579;-80
2022/05/10 00:25:23;;;;;;;11.43;5.53;;;358.80;2329.60;;;;;;4899853;29;20025;-80
2022/05/10 00:27:49;;;;;;;9.65;5.80;;;358.80;2329.60;;;;;;4882656;29;20051;-81
2022/05/10 00:30:15;;;;;;;10.55;5.53;;;358.80;2329.60;;;;;;4881514;29;20463;-81
2022/05/10 00:32:43;;;;;;;13.55;7.38;;;358.80;2329.60;;;;;;4882598;29;20039;-81
2022/05/10 00:35:23;;;;;;;9.45;6.00;;;358.90;2329.60;;;;;;4882365;29;20093;-80
2022/05/10 00:37:51;;;;;;;10.88;5.40;;;359.00;2329.60;;;;;;4881839;29;20029;-81
2022/05/10 00:40:22;;;;;;;11.43;6.20;;;358.80;2329.60;;;;;;4899149;29;20037;-81
2022/05/10 00:42:59;;;;;;;10.18;6.00;;;358.90;2329.60;;;;;;4882348;29;20428;-78
2022/05/10 00:45:48;;;;;;;17.58;8.52;;;358.80;2329.60;;;;;;4882331;29;20028;-81
2022/05/10 00:48:32;;;;;;;14.80;7.32;;;359.00;2329.60;;;;;;4882681;29;20059;-80
2022/05/10 00:51:14;;;;;;;10.15;5.47;;;358.80;2329.60;;;;;;4881248;29;20052;-81
2022/05/10 00:53:54;;;;;;;20.17;10.32;;;358.70;2329.60;;;;;;4882741;29;20035;-81
2022/05/10 00:57:38;;;;;;;33.75;16.83;;;358.70;2329.60;;;;;;4882135;29;20025;-83
2022/05/10 01:00:17;;;;;;;27.40;15.32;;;358.60;2329.60;;;;;;4888253;29;20057;-83
2022/05/10 01:03:09;;;;;;;16.27;8.73;;;358.40;2329.60;;;;;;4864064;29;20176;-83
2022/05/10 01:05:42;;;;;;;8.77;5.60;;;358.50;2329.60;;;;;;4863997;29;20124;-83
2022/05/10 01:08:07;;;;;;;;;;;333.70;2329.60;;;;;;4864556;29;20097;-84
2022/05/10 01:11:35;;;;;;;11.27;6.13;;;333.60;2329.60;;;;;;4864180;29;19911;-82
2022/05/10 01:14:07;;;;;;;10.50;5.50;;;333.70;2329.60;;;;;;4900333;29;20044;-84
2022/05/10 01:16:36;;;;;;;8.90;5.53;;;333.70;2329.60;;;;;;4900234;29;20111;-82
2022/05/10 01:19:03;;;;;;;14.57;5.55;;;333.70;2329.60;;;;;;4900473;29;20043;-81
2022/05/10 01:29:15;;;;;;;8.45;5.38;;;333.30;2329.60;;;;;;4880674;29;20084;-83
2022/05/10 01:33:29;;;;;;;8.40;5.20;;;333.30;2329.60;;;;;;4882216;29;20042;-82
2022/05/10 01:34:36;;;;;;;10.88;5.80;;;333.40;2329.60;;;;;;4917558;29;20498;-81
2022/05/10 01:37:07;;;;;;;10.10;4.63;;;333.50;2329.60;;;;;;4900283;29;20402;-81
2022/05/10 01:43:17;;;;;;;11.85;5.35;;;333.50;2329.60;;;;;;4821896;29;20561;-81
2022/05/10 01:46:40;;;;;;;15.18;5.88;;;333.50;2329.60;;;;;;4899751;29;20108;-85
2022/05/10 01:53:09;;;;;;;9.93;5.00;;;333.30;2329.60;;;;;;4839688;29;20086;-84
2022/05/10 02:10:06;;;;;;;9.90;5.15;;;333.00;2329.60;;;;;;4842862;29;20041;-84
2022/05/10 02:13:03;;;;;;;13.70;5.72;;;333.10;2329.60;;;;;;4858852;29;20030;-79
2022/05/10 02:15:41;;;;;;;9.38;5.78;;;333.10;2329.60;;;;;;4844724;29;20077;-84
2022/05/10 02:18:57;;;;;;;;;;;;;;;;;;;;;
2022/05/10 02:21:38;;;;;;;11.05;5.78;;;333.20;2329.60;;;;;;4895923;29;20036;-85
2022/05/10 02:24:33;;;;;;;12.75;6.32;;;332.90;2329.60;;;;;;4898252;29;20043;-81
2022/05/10 02:27:48;;;;;;;;;;;;;;;;;;;;;
2022/05/10 02:30:49;;;;;;;14.13;6.22;;;333.00;2329.60;;;;;;4841437;29;20049;-85
2022/05/10 02:36:27;;;;;;;14.93;6.47;;;332.80;2329.60;;;;;;4839815;29;20034;-85
2022/05/10 02:40:43;;;;;;;;;;;;;;;;;;;;;
2022/05/10 02:43:06;;;;;;;11.95;5.90;;;308.10;2304.00;;;;;;4824378;29;20083;-83
2022/05/10 02:46:36;;;;;;;11.32;5.93;;;308.00;2304.00;;;;;;4756612;30;20039;-82
2022/05/10 02:49:24;;;;;;;12.20;6.82;;;307.80;2304.00;;;;;;4897325;29;20052;-81
2022/05/10 03:03:40;;;;;;;9.85;6.07;;;307.60;2304.00;;;;;;4889761;29;20052;-80
2022/05/10 03:07:00;;;;;;;10.30;6.07;;;307.60;2304.00;;;;;;4809341;29;20066;-82
2022/05/10 03:23:21;;;;;;;11.55;6.50;;;307.90;2304.00;;;;;;4762504;30;20513;-84
2022/05/10 03:26:46;;;;;;;10.52;5.90;;;307.80;2304.00;;;;;;4776050;30;20083;-82
2022/05/10 03:36:45;;;;;;;14.70;6.00;;;307.40;2304.00;;;;;;4753003;30;20105;-85
2022/05/10 03:43:48;;;;;;;11.57;5.78;;;307.40;2304.00;;;;;;4787453;30;20030;-84
2022/05/10 03:57:06;;;;;;;10.40;6.18;;;307.20;2304.00;;;;;;4878765;29;20096;-83
2022/05/10 04:00:11;;;;;;;;;;;307.20;2304.00;;;;;;4846193;29;20152;-84
2022/05/10 04:03:41;;;;;;;14.00;7.22;;;282.50;2278.40;;;;;;4860201;29;19908;-84
2022/05/10 04:06:55;;;;;;;10.43;6.15;;;307.30;2304.00;;;;;;4826418;29;20558;-84
2022/05/10 04:10:16;;;;;;;12.20;6.50;;;308.00;2304.00;;;;;;4801755;29;20735;-82
2022/05/10 04:16:46;;;;;;;12.18;6.60;;;307.40;2304.00;;;;;;4785757;30;20052;-84
2022/05/10 04:20:36;;;;;;;14.75;7.15;;;307.40;2304.00;;;;;;4728466;30;20045;-82
2022/05/10 04:31:42;;;;;;;11.02;6.40;;;307.30;2304.00;;;;;;4733078;30;20124;-85
2022/05/10 04:35:22;;;;;;;14.55;7.30;;;307.40;2304.00;;;;;;4716168;30;20064;-84
2022/05/10 04:42:33;;;;;;;15.27;7.82;;;307.30;2304.00;;;;;;4690386;30;20037;-85
2022/05/10 04:49:53;;;;;;;21.33;8.13;;;307.50;2304.00;;;;;;4662955;30;20186;-85
2022/05/10 05:03:24;;;;;;;19.67;9.00;;;307.70;2304.00;;;;;;4758638;29;20029;-82
2022/05/10 05:13:23;;;;;;;19.92;8.07;;;308.00;2304.00;;;;;;4769489;30;20046;-85
2022/05/10 05:16:09;;;;;;;22.92;8.88;;;307.80;2304.00;;;;;;4764770;30;20077;-83
2022/05/10 05:21:58;;;;;;;11.88;7.40;;;308.10;2304.00;;;;;;4822299;29;20052;-84
2022/05/10 05:28:22;;;;;;;14.57;6.80;;;332.90;2329.60;;;;;;4836263;29;20037;-82
2022/05/10 05:34:59;;;;;;;;;;;;;;;;;;;;;
2022/05/10 05:41:28;;;;;;;13.23;6.85;;;333.30;2329.60;;;;;;4917075;29;20750;-81
2022/05/10 05:54:43;;;;;;;16.65;8.27;;;333.60;2329.60;;;;;;4859690;29;20032;-84
2022/05/10 06:00:39;;;;;;;14.98;7.82;;;333.60;2329.60;;;;;;4858523;29;20089;-82
2022/05/10 06:03:15;;;;;;;16.48;7.13;;;333.70;2329.60;;;;;;4843852;29;20579;-85
2022/05/10 06:05:52;;;;;;;14.15;7.28;;;358.40;2329.60;;;;;;4843046;29;20049;-83
2022/05/10 06:08:44;;;;;;;18.40;8.98;;;358.50;2329.60;;;;;;4843774;29;20048;-82
2022/05/10 06:11:10;;;;;;;17.52;8.20;;;358.60;2329.60;;;;;;4839980;29;20564;-84
2022/05/10 06:13:36;;;;;;;18.80;8.30;;;358.80;2329.60;;;;;;4843854;29;20516;-83
2022/05/10 06:16:09;;;;;;;18.60;7.97;;;358.90;2329.60;;;;;;4842740;29;20029;-82
2022/05/10 06:18:35;;;;;;;16.33;8.40;;;359.00;2329.60;;;;;;4843541;29;20036;-82
2022/05/10 06:21:02;;;;;;;18.42;8.05;;;358.80;2329.60;;;;;;4843070;29;20038;-84
2022/05/10 06:23:35;;;;;;;19.65;10.63;;;359.30;2329.60;;;;;;4843874;29;20446;-82
2022/05/10 06:26:09;;;;;;;12.90;7.05;;;384.10;2329.60;;;;;;4843255;29;20403;-84
2022/05/10 06:28:38;;;;;;;15.15;7.03;;;384.20;2329.60;;;;;;4899448;29;20036;-86
2022/05/10 06:31:09;;;;;;;18.17;10.18;;;384.40;2329.60;;;;;;4903585;29;20439;-83
2022/05/10 06:33:36;;;;;;;16.65;10.25;;;384.50;2329.60;;;;;;4903885;29;20024;-84
2022/05/10 06:36:02;;;;;;;22.08;7.78;;;384.70;2329.60;;;;;;4903456;29;20059;-85
2022/05/10 06:38:28;;;;;;;10.40;6.72;;;409.60;2355.20;;;;;;4904540;29;20451;-84
2022/05/10 06:40:57;;;;;;;14.25;6.70;;;409.90;2355.20;;;;;;4903353;29;20126;-84
2022/05/10 06:43:23;;;;;;;15.07;6.38;;;410.00;2355.20;;;;;;4903775;29;20034;-83
2022/05/10 06:45:50;;;;;;;15.90;6.95;;;410.30;2355.20;;;;;;4903130;29;20031;-86
2022/05/10 06:48:17;;;;;;;14.80;7.22;;;410.40;2355.20;;;;;;4903983;29;20028;-82
2022/05/10 06:50:44;;;;;;;18.17;7.28;;;410.50;2355.20;;;;;;4903586;29;20036;-84
2022/05/10 06:53:11;;;;;;;12.75;7.70;;;435.20;2355.20;;;;;;4903723;29;20035;-82
2022/05/10 06:55:38;;;;;;;14.75;7.55;;;435.30;2355.20;;;;;;4903421;29;20047;-82
2022/05/10 06:58:04;;;;;;;21.48;7.50;;;435.60;2355.20;;;;;;4903819;29;20032;-83
2022/05/10 07:00:32;;;;;;;13.60;7.15;;;435.60;2355.20;;;;;;4902724;29;20043;-83
2022/05/10 07:02:58;;;;;;;13.10;6.95;;;435.80;2355.20;;;;;;4903432;29;20084;-83
2022/05/10 07:05:24;;;;;;;14.07;7.03;;;436.00;2355.20;;;;;;4903040;29;20027;-84
2022/05/10 07:07:50;;;;;;;15.65;6.93;;;460.80;2380.80;;;;;;4903998;29;20051;-83
2022/05/10 07:10:17;;;;;;;13.43;7.05;;;460.90;2380.80;;;;;;4902142;29;20037;-81
2022/05/10 07:12:44;;;;;;;12.43;6.25;;;461.10;2380.80;;;;;;4901607;29;20033;-82
2022/05/10 07:15:15;;;;;;;12.10;6.00;;;461.20;2355.20;;;;;;4900679;29;20063;-83
2022/05/10 07:17:41;;;;;;;12.23;6.18;;;461.50;2304.00;;;;;;4913746;29;20032;-82
2022/05/10 07:20:09;;;;;;;10.88;5.72;;;461.70;2304.00;;;;;;4920594;29;20144;-83
2022/05/10 07:22:36;;;;;;;10.85;5.30;;;486.50;2227.20;;;;;;4903237;29;20127;-83
2022/05/10 07:25:03;;;;;;;6.90;4.88;;;486.70;2176.00;;;;;;4920398;29;20021;-82
2022/05/10 07:27:29;;;;;;;10.73;4.80;;;486.80;2150.40;;;;;;4919384;29;20457;-81
2022/05/10 07:29:55;;;;;;;11.68;4.25;;;486.90;2048.00;;;;;;4902473;29;20059;-78
2022/05/10 07:32:21;;;;;;;10.82;4.45;;;487.00;2022.40;;;;;;4902596;29;20065;-79
2022/05/10 07:34:48;;;;;;;5.75;3.55;;;487.10;1996.80;;;;;;4902903;29;20032;-82
2022/05/10 07:37:14;;;;;;;14.50;4.47;;;487.30;1971.20;;;;;;4902543;29;20032;-80
2022/05/10 07:39:40;;;;;;;10.02;4.07;;;487.30;1945.60;;;;;;4903243;29;20488;-79
2022/05/10 07:42:06;;;;;;;8.02;3.70;;;487.30;1945.60;;;;;;4893502;29;20043;-78
2022/05/10 07:44:32;;;;;;;6.97;3.42;;;512.10;1920.00;;;;;;4895388;29;20051;-76
2022/05/10 07:46:58;;;;;;;7.90;3.92;;;512.40;1894.40;;;;;;4889714;29;20024;-78
2022/05/10 07:49:24;;;;;;;9.77;4.10;;;512.30;1894.40;;;;;;4900697;29;20036;-78
2022/05/10 07:51:51;;;;;;;7.13;3.65;;;512.40;1920.00;;;;;;4883549;29;20036;-79
2022/05/10 07:54:17;;;;;;;8.07;3.78;;;512.60;1868.80;;;;;;4884111;29;20052;-78
2022/05/10 07:56:43;;;;;;;10.93;4.22;;;512.90;1894.40;;;;;;4900607;29;20032;-79
2022/05/10 07:59:09;;;;;;;9.68;4.00;;;537.80;1894.40;;;;;;4883412;29;20084;-79
2022/05/10 08:01:35;;;;;;;10.65;3.30;;;538.00;1843.20;;;;;;4899250;29;20025;-77
2022/05/10 08:04:01;;;;;;;6.65;3.85;;;538.00;1792.00;;;;;;4883515;29;20059;-78
2022/05/10 08:06:27;;;;;;;7.22;3.92;;;538.10;1817.60;;;;;;4883533;29;20060;-79
2022/05/10 08:08:53;;;;;;;8.30;3.95;;;538.40;1792.00;;;;;;4883909;29;20426;-78
2022/05/10 08:11:20;;;;;;;8.30;3.42;;;563.20;1817.60;;;;;;4899865;29;20072;-78
2022/05/10 08:13:46;;;;;;;7.97;3.83;;;563.30;1792.00;;;;;;4883058;29;20067;-81
2022/05/10 08:16:12;;;;;;;6.88;3.88;;;563.30;1792.00;;;;;;4882876;29;20081;-78
2022/05/10 08:18:41;;;;;;;8.73;3.70;;;563.20;1792.00;;;;;;4916708;29;20423;-78
2022/05/10 08:21:08;;;;;;;9.77;4.20;;;563.90;1792.00;;;;;;4900519;29;20544;-79
2022/05/10 08:23:36;;;;;;;10.60;3.60;;;563.20;1792.00;;;;;;4902056;29;20032;-78
2022/05/10 08:26:03;;;;;;;8.43;4.57;;;563.50;1792.00;;;;;;4900976;29;20115;-78
2022/05/10 08:28:30;;;;;;;10.00;5.75;;;563.40;1766.40;;;;;;4901937;29;20032;-80
2022/05/10 08:30:57;;;;;;;7.75;3.97;;;563.60;1766.40;;;;;;4899974;29;20096;-78
2022/05/10 08:33:32;;;;;;;8.63;4.40;;;563.60;1740.80;;;;;;4917336;29;20126;-79
2022/05/10 08:35:59;;;;;;;9.82;4.35;;;563.80;1766.40;;;;;;4917843;29;20035;-78
2022/05/10 08:38:27;;;;;;;8.18;3.95;;;564.10;1740.80;;;;;;4917205;29;20028;-79
2022/05/10 08:41:14;;;;;;;19.20;7.40;;;588.90;1715.20;;;;;;4901595;29;20079;-78
2022/05/10 08:43:46;;;;;;;17.63;4.78;;;589.30;1715.20;;;;;;4917591;29;20419;-79
2022/05/10 08:46:15;;;;;;;10.95;6.25;;;589.60;1689.60;;;;;;4916507;29;20087;-78
2022/05/10 08:48:42;;;;;;;13.07;4.35;;;589.70;1689.60;;;;;;4917076;29;20490;-81
2022/05/10 08:51:08;;;;;;;9.70;4.10;;;614.40;1689.60;;;;;;4916402;29;20032;-79
2022/05/10 08:53:34;;;;;;;12.77;3.95;;;589.70;1689.60;;;;;;4917128;29;20126;-81
2022/05/10 08:56:21;;;;;;;10.63;3.95;;;589.70;1689.60;;;;;;4901757;29;20032;-81
2022/05/10 08:59:08;;;;;;;11.00;4.57;;;589.70;1689.60;;;;;;4917201;29;20125;-78
2022/05/10 09:01:58;;;;;;;9.23;3.88;;;614.40;1664.00;;;;;;4901796;29;20063;-82
2022/05/10 09:04:48;;;;;;;7.22;3.40;;;614.40;1689.60;;;;;;4917304;29;20028;-82
2022/05/10 09:07:55;;;;;;;9.55;4.07;;;589.50;1689.60;;;;;;4916703;29;20119;-77
2022/05/10 09:10:32;;;;;;;8.52;3.85;;;589.70;1689.60;;;;;;4859204;29;20040;-82
2022/05/10 09:13:02;;;;;;;10.23;3.60;;;614.90;1689.60;;;;;;4917200;29;20478;-81
2022/05/10 09:15:36;;;;;;;9.60;3.92;;;614.90;1638.40;;;;;;4916803;29;20040;-78
2022/05/10 09:18:07;;;;;;;7.57;3.28;;;614.80;1638.40;;;;;;4916785;29;20044;-79
2022/05/10 09:20:38;;;;;;;9.70;4.10;;;614.70;1664.00;;;;;;4916498;29;20135;-80
2022/05/10 09:23:21;;;;;;;8.88;3.53;;;614.80;1664.00;;;;;;4918141;29;20032;-79
2022/05/10 09:25:48;;;;;;;10.00;3.88;;;615.00;1664.00;;;;;;4916985;29;20088;-80
2022/05/10 09:28:22;;;;;;;6.85;3.33;;;615.20;1638.40;;;;;;4916864;29;20028;-76
2022/05/10 09:36:34;;;;;;;7.80;5.53;;;640.50;1561.60;;;;;;4917919;29;20043;-76
2022/05/10 09:39:23;;;;;;;7.30;4.40;;;640.10;1561.60;;;;;;4916512;29;20492;-77
2022/05/10 09:41:53;;;;;;;5.90;3.58;;;640.70;1536.00;;;;;;4917223;29;20382;-77
2022/05/10 09:44:27;;;;;;;8.70;2.90;;;640.70;1536.00;;;;;;4900116;29;20024;-77
2022/05/10 09:47:16;;;;;;;7.13;3.10;;;640.60;1536.00;;;;;;4916041;29;20366;-78
2022/05/10 09:49:41;;;;;;;5.60;3.28;;;665.70;1561.60;;;;;;4899701;29;20046;-81
2022/05/10 09:52:20;;;;;;;5.85;3.08;;;666.00;1561.60;;;;;;4915885;29;20036;-79
2022/05/10 09:54:48;;;;;;;7.30;3.33;;;665.60;1510.40;;;;;;4916549;29;20360;-79
2022/05/10 09:57:34;;;;;;;5.75;3.35;;;665.60;1536.00;;;;;;4900441;29;20036;-80
2022/05/10 10:00:01;;;;;;;7.78;2.92;;;666.00;1510.40;;;;;;4917966;29;20024;-80
2022/05/10 10:02:34;;;;;;;7.88;3.60;;;666.00;1510.40;;;;;;4915679;29;20032;-80
2022/05/10 10:05:17;;;;;;;9.25;4.65;;;666.20;1536.00;;;;;;4916203;29;20466;-81
2022/05/10 10:07:53;;;;;;;8.85;3.47;;;666.50;1510.40;;;;;;4915757;29;20028;-82
2022/05/10 10:10:34;;;;;;;6.43;3.15;;;666.50;1510.40;;;;;;4899790;29;20036;-80
2022/05/10 10:13:25;;;;;;;8.00;3.00;;;666.50;1484.80;;;;;;4916076;29;20024;-80
2022/05/10 10:15:51;;;;;;;5.18;3.00;;;691.20;1510.40;;;;;;4916171;29;20277;-81
2022/05/10 10:18:42;;;;;;;9.07;3.80;;;691.40;1510.40;;;;;;4916331;29;20115;-81
2022/05/10 10:21:11;;;;;;;7.70;3.35;;;691.80;1484.80;;;;;;4917520;29;20059;-78
2022/05/10 10:23:48;;;;;;;6.03;2.83;;;691.90;1484.80;;;;;;4937008;29;20032;-79
2022/05/10 10:26:35;;;;;;;28.77;4.45;;;691.60;1459.20;;;;;;4925171;29;20088;-82
2022/05/10 10:29:14;;;;;;;10.45;3.78;;;691.40;1484.80;;;;;;4917286;29;20032;-81
2022/05/10 10:32:11;;;;;;;11.23;3.60;;;692.10;1484.80;;;;;;4914696;29;20123;-78
2022/05/10 10:34:49;;;;;;;10.73;3.42;;;717.10;1459.20;;;;;;4909477;29;20108;-79
2022/05/10 10:37:32;;;;;;;43.22;38.38;;;717.20;1459.20;;;;;;4901315;29;20036;-80
2022/05/10 10:40:24;;;;;;;7.30;3.30;;;717.50;1433.60;;;;;;4890819;29;20039;-80
2022/05/10 10:43:15;;;;;;;6.70;3.15;;;717.50;1331.20;;;;;;4914669;29;20048;-82
2022/05/10 10:45:45;;;;;;;7.57;5.50;;;717.40;1356.80;;;;;;4917243;29;20028;-82
2022/05/10 10:48:38;;;;;;;15.73;13.98;;;717.30;1382.40;;;;;;4900811;29;20025;-83
2022/05/10 10:51:04;;;;;;;20.27;5.00;;;717.20;1382.40;;;;;;4910755;29;20044;-82
2022/05/10 10:53:34;;;;;;;11.15;9.80;;;717.70;1433.60;;;;;;4917347;29;20031;-81
2022/05/10 10:56:21;;;;;;;8.75;5.03;;;742.40;1408.00;;;;;;4919398;29;20386;-81
2022/05/10 10:59:27;;;;;;;6.63;3.40;;;717.70;1382.40;;;;;;4914599;29;20383;-80
2022/05/10 11:02:08;;;;;;;7.00;4.10;;;742.60;1459.20;;;;;;4899722;29;20119;-80
2022/05/10 11:04:55;;;;;;;10.65;6.10;;;742.60;1459.20;;;;;;4896383;29;20118;-78
2022/05/10 11:07:48;;;;;;;10.63;7.32;;;742.50;1484.80;;;;;;4911714;29;20430;-78
2022/05/10 11:10:45;;;;;;;6.07;4.13;;;717.50;1484.80;;;;;;4877856;29;20055;-79
2022/05/10 11:13:27;;;;;;;13.90;11.50;;;717.00;1510.40;;;;;;4915390;29;20028;-80
2022/05/10 11:16:20;;;;;;;7.82;3.83;;;717.00;1510.40;;;;;;4902441;29;20459;-81
2022/05/10 11:19:07;;;;;;;6.15;3.63;;;692.10;1484.80;;;;;;4917557;29;20126;-78
2022/05/10 11:21:57;;;;;;;5.38;3.03;;;691.70;1484.80;;;;;;4918118;29;20405;-79
2022/05/10 11:24:58;;;;;;;4.50;3.00;;;691.30;1484.80;;;;;;4918709;29;20466;-78
2022/05/10 11:27:47;;;;;;;8.07;3.42;;;666.20;1484.80;;;;;;4919346;29;20028;-79
2022/05/10 11:30:28;;;;;;;5.68;3.67;;;691.40;1510.40;;;;;;4923816;29;20063;-76
2022/05/10 11:33:11;;;;;;;8.57;3.70;;;691.90;1459.20;;;;;;4921933;29;20024;-76
2022/05/10 11:36:15;;;;;;;7.88;3.38;;;717.10;1484.80;;;;;;4942073;29;20083;-79
2022/05/10 11:39:08;;;;;;;7.80;3.50;;;717.50;1433.60;;;;;;4902239;29;20041;-81
2022/05/10 11:41:57;;;;;;;7.30;3.05;;;717.70;1408.00;;;;;;4903286;29;20478;-81
2022/05/10 11:44:47;;;;;;;6.95;3.28;;;742.40;1433.60;;;;;;4902499;29;20051;-81
2022/05/10 11:47:41;;;;;;;8.27;3.67;;;742.40;1459.20;;;;;;4919913;29;20498;-82
2022/05/10 11:50:31;;;;;;;11.07;7.10;;;742.60;1408.00;;;;;;4902143;29;20493;-80
2022/05/10 11:53:11;;;;;;;4.63;3.00;;;742.60;1408.00;;;;;;4899377;29;20051;-79
2022/05/10 11:55:57;;;;;;;8.95;4.43;;;742.60;1382.40;;;;;;4900210;29;20036;-81
2022/05/10 11:58:26;;;;;;;6.55;3.10;;;743.00;1382.40;;;;;;4883465;29;20092;-79
2022/05/10 12:00:57;;;;;;;5.40;2.83;;;742.90;1356.80;;;;;;4883053;29;20070;-80
2022/05/10 12:03:44;;;;;;;10.57;2.75;;;742.80;1382.40;;;;;;4900757;29;20035;-81
2022/05/10 12:06:36;;;;;;;7.18;2.45;;;742.50;1408.00;;;;;;4899741;29;20435;-83
2022/05/10 12:09:05;;;;;;;5.57;2.60;;;717.30;1408.00;;;;;;4895081;29;20124;-83
2022/05/10 12:11:31;;;;;;;7.03;2.50;;;716.80;1433.60;;;;;;4882848;29;20128;-80
2022/05/10 12:22:15;;;;;;;8.63;3.20;;;691.30;1484.80;;;;;;4900592;29;20067;-82
2022/05/10 12:24:46;;;;;;;9.70;3.83;;;666.50;1510.40;;;;;;4883406;29;20036;-80
2022/05/10 12:27:11;;;;;;;6.50;3.13;;;691.20;1510.40;;;;;;4882248;29;20025;-82
2022/05/10 12:29:40;;;;;;;4.88;3.35;;;691.30;1510.40;;;;;;4898474;29;20488;-80
2022/05/10 12:32:26;;;;;;;5.93;3.13;;;691.60;1510.40;;;;;;4898556;29;20051;-78
2022/05/10 12:35:00;;;;;;;5.18;2.95;;;691.60;1484.80;;;;;;4883316;29;20169;-82
2022/05/10 12:37:26;;;;;;;5.43;3.25;;;691.60;1484.80;;;;;;4883090;29;20471;-81
2022/05/10 12:39:57;;;;;;;8.70;3.58;;;691.90;1484.80;;;;;;4883404;29;20036;-81
2022/05/10 12:42:50;;;;;;;6.82;2.72;;;717.00;1510.40;;;;;;4900394;29;20025;-81
2022/05/10 12:45:29;;;;;;;6.03;2.92;;;717.10;1536.00;;;;;;4899536;29;20024;-82
2022/05/10 12:48:10;;;;;;;12.13;8.88;;;717.60;1484.80;;;;;;4898803;29;20053;-81
2022/05/10 12:51:14;;;;;;;9.27;4.47;;;742.80;1484.80;;;;;;4885107;29;20039;-82
2022/05/10 12:53:51;;;;;;;7.07;4.05;;;743.10;1459.20;;;;;;4901859;29;20033;-80
2022/05/10 12:56:22;;;;;;;7.18;3.15;;;743.30;1408.00;;;;;;4901546;29;20043;-80
2022/05/10 12:58:54;;;;;;;9.40;3.35;;;768.20;1433.60;;;;;;4910392;29;20035;-78
2022/05/10 13:01:21;;;;;;;;;;;768.10;1459.20;;;;;;4935040;29;20092;-79
2022/05/10 13:03:56;;;;;;;7.68;2.83;;;742.90;1459.20;;;;;;4885915;29;19942;-80
2022/05/10 13:06:50;;;;;;;7.43;2.97;;;717.60;1459.20;;;;;;4899609;29;20085;-81
2022/05/10 13:09:29;;;;;;;10.50;3.35;;;717.20;1484.80;;;;;;4897984;29;20029;-81
2022/05/10 13:12:11;;;;;;;7.53;3.20;;;692.10;1510.40;;;;;;4907328;29;20032;-80
2022/05/10 13:14:44;;;;;;;10.48;3.20;;;691.70;1536.00;;;;;;4918112;29;20032;-81
2022/05/10 13:17:22;;;;;;;5.28;3.00;;;691.80;1510.40;;;;;;4918536;29;20064;-80
2022/05/10 13:19:48;;;;;;;5.97;3.38;;;692.10;1510.40;;;;;;4901253;29;20040;-80
2022/05/10 13:22:21;;;;;;;5.18;2.92;;;717.10;1536.00;;;;;;4918227;29;20450;-81
2022/05/10 13:24:53;;;;;;;6.13;3.25;;;717.20;1510.40;;;;;;4901112;29;20035;-81
2022/05/10 13:27:29;;;;;;;;;;;717.60;1510.40;;;;;;4901700;29;20032;-81
2022/05/10 13:30:02;;;;;;;7.35;3.70;;;742.40;1536.00;;;;;;4917338;29;19922;-80
2022/05/10 13:32:36;;;;;;;8.27;3.72;;;742.50;1510.40;;;;;;4885346;29;20513;-81
2022/05/10 13:35:24;;;;;;;7.63;3.45;;;742.80;1484.80;;;;;;4882269;29;20081;-81
2022/05/10 13:37:53;;;;;;;4.32;2.78;;;742.90;1459.20;;;;;;4882242;29;20035;-81
2022/05/10 13:40:27;;;;;;;6.57;3.08;;;743.00;1433.60;;;;;;4899044;29;20036;-81
2022/05/10 13:42:55;;;;;;;8.18;2.83;;;743.10;1433.60;;;;;;4899245;29;20068;-81
2022/05/10 13:45:26;;;;;;;7.60;2.88;;;743.30;1408.00;;;;;;4881922;29;20067;-81
2022/05/10 13:48:00;;;;;;;6.10;3.43;;;768.10;1433.60;;;;;;4882824;29;20028;-82
2022/05/10 13:50:29;;;;;;;14.02;8.82;;;768.30;1408.00;;;;;;4881737;29;20390;-83
2022/05/10 13:53:00;;;;;;;8.93;4.93;;;768.30;1408.00;;;;;;4882442;29;20029;-82
2022/05/10 13:55:29;;;;;;;5.63;2.72;;;768.30;1408.00;;;;;;4882016;29;20386;-82
2022/05/10 13:58:02;;;;;;;9.95;3.00;;;768.40;1382.40;;;;;;4899719;29;20055;-82
2022/05/10 14:00:43;;;;;;;8.27;3.30;;;768.20;1356.80;;;;;;4882154;29;20037;-83
2022/05/10 14:03:11;;;;;;;7.25;2.97;;;743.30;1408.00;;;;;;4882567;29;20493;-87
2022/05/10 14:05:37;;;;;;;5.38;2.92;;;743.10;1382.40;;;;;;4886944;29;20487;-82
2022/05/10 14:08:17;;;;;;;6.15;2.30;;;768.30;1382.40;;;;;;4903698;29;20028;-84
2022/05/10 14:10:45;;;;;;;12.57;3.05;;;743.30;1356.80;;;;;;4916027;29;20040;-83
2022/05/10 14:13:21;;;;;;;9.70;3.80;;;768.00;1356.80;;;;;;4916207;29;20032;-84
2022/05/10 14:15:48;;;;;;;7.25;3.75;;;768.30;1356.80;;;;;;4916735;29;20378;-83
2022/05/10 14:18:19;;;;;;;7.22;3.67;;;768.90;1356.80;;;;;;4900899;29;20024;-84
2022/05/10 14:20:48;;;;;;;5.90;2.88;;;768.40;1331.20;;;;;;4917672;29;20048;-82
2022/05/10 14:23:17;;;;;;;7.72;3.55;;;768.40;1331.20;;;;;;4915618;29;20032;-83
2022/05/10 14:26:23;;;;;;;8.10;3.72;;;768.40;1331.20;;;;;;4916475;29;20474;-80
2022/05/10 14:28:54;;;;;;;12.88;8.43;;;768.40;1305.60;;;;;;4888798;29;20119;-82
2022/05/10 14:31:30;;;;;;;17.35;5.90;;;768.40;1331.20;;;;;;4911710;29;20032;-82
2022/05/10 14:33:56;;;;;;;10.02;4.50;;;768.10;1305.60;;;;;;4899930;29;20029;-82
2022/05/10 14:36:29;;;;;;;14.60;3.78;;;743.30;1331.20;;;;;;4900554;29;20035;-81
2022/05/10 14:38:56;;;;;;;11.05;3.28;;;743.20;1331.20;;;;;;4915774;29;20024;-80
2022/05/10 14:41:44;;;;;;;11.73;3.95;;;743.20;1356.80;;;;;;4916316;29;20127;-81
2022/05/10 14:44:21;;;;;;;8.63;3.00;;;743.10;1382.40;;;;;;4915453;29;20028;-82
2022/05/10 14:46:56;;;;;;;8.60;4.30;;;743.20;1356.80;;;;;;4915264;29;20406;-81
2022/05/10 14:49:41;;;;;;;9.93;4.45;;;743.10;1382.40;;;;;;4916580;29;20024;-81
2022/05/10 14:52:26;;;;;;;6.15;3.45;;;743.10;1382.40;;;;;;4919230;29;20036;-80
2022/05/10 14:54:53;;;;;;;6.72;3.92;;;743.10;1382.40;;;;;;4919216;29;20039;-82
2022/05/10 14:57:40;;;;;;;7.07;3.50;;;743.00;1382.40;;;;;;4903520;29;20103;-83
2022/05/10 15:00:37;;;;;;;6.00;3.20;;;742.90;1382.40;;;;;;4903858;29;20036;-82
2022/05/10 15:03:24;;;;;;;8.45;3.53;;;742.90;1408.00;;;;;;4904128;29;20028;-82
2022/05/10 15:05:51;;;;;;;9.07;3.75;;;742.80;1382.40;;;;;;4918944;29;20035;-83
2022/05/10 15:08:18;;;;;;;10.57;3.70;;;742.90;1382.40;;;;;;4903804;29;20486;-80
2022/05/10 15:10:48;;;;;;;9.13;5.68;;;742.90;1382.40;;;;;;4903904;29;20180;-81
2022/05/10 15:13:14;;;;;;;10.52;3.33;;;742.90;1382.40;;;;;;4903442;29;20028;-82
2022/05/10 15:15:55;;;;;;;8.15;5.28;;;743.00;1382.40;;;;;;4903466;29;20028;-80
2022/05/10 15:21:11;;;;;;;6.40;3.75;;;742.80;1382.40;;;;;;4919779;29;20063;-83
2022/05/10 15:23:37;;;;;;;6.43;3.47;;;742.60;1382.40;;;;;;4903667;29;20179;-83
2022/05/10 15:26:05;;;;;;;6.07;3.92;;;742.60;1382.40;;;;;;4903085;29;20118;-81
2022/05/10 15:28:30;;;;;;;9.82;5.53;;;742.50;1408.00;;;;;;4903443;29;20462;-81
2022/05/10 15:30:56;;;;;;;7.93;3.95;;;742.50;1408.00;;;;;;4918633;29;20091;-80
2022/05/10 15:33:22;;;;;;;10.95;6.13;;;717.70;1408.00;;;;;;4922899;29;20035;-79
2022/05/10 15:35:48;;;;;;;8.90;4.78;;;717.50;1408.00;;;;;;4944206;29;20028;-80
2022/05/10 15:38:13;;;;;;;9.18;4.65;;;717.10;1408.00;;;;;;4909856;29;20048;-81
2022/05/10 15:40:39;;;;;;;9.98;6.53;;;716.80;1433.60;;;;;;4918921;29;20036;-81
2022/05/10 15:43:05;;;;;;;10.02;5.15;;;692.00;1433.60;;;;;;4919202;29;20042;-80
2022/05/10 15:45:31;;;;;;;15.23;8.00;;;691.70;1459.20;;;;;;4918274;29;20106;-81
2022/05/10 15:47:57;;;;;;;7.28;3.15;;;691.70;1459.20;;;;;;4902717;29;20028;-81
2022/05/10 15:50:26;;;;;;;8.32;3.40;;;691.50;1484.80;;;;;;4902130;29;20099;-80
2022/05/10 15:52:53;;;;;;;8.93;3.60;;;691.70;1459.20;;;;;;4902967;29;20032;-80
2022/05/10 15:55:20;;;;;;;10.25;4.07;;;691.70;1459.20;;;;;;4902107;29;20028;-80